Time;durP1;ratioP1;P1;durP2;ratioP2;P2;SDS_P1;SDS_P2;PMS_P1;PMS_P2;Temp;Humidity;BMP_temperature;BMP_pressure;BME280_temperature;BME280_humidity;BME280_pressure;Samples;Min_cycle;Max_cycle;Signal;HPM_P1;HPM_P2
2021/11/13 00:00:11;;;;;;;27.50;17.90;;;9.40;99.90;;;;;;4968810;28;20034;-48
2021/11/13 00:02:37;;;;;;;27.70;17.40;;;9.40;99.90;;;;;;4928585;28;20031;-47
2021/11/13 00:05:04;;;;;;;28.20;17.83;;;9.40;99.90;;;;;;4912388;28;20045;-48
2021/11/13 00:07:30;;;;;;;29.13;20.15;;;9.30;99.90;;;;;;4943848;28;20040;-47
2021/11/13 00:09:55;;;;;;;27.95;19.58;;;9.40;99.90;;;;;;4992115;28;20122;-47
2021/11/13 00:12:22;;;;;;;34.05;20.88;;;9.50;99.90;;;;;;4992149;28;20532;-48
2021/11/13 00:14:48;;;;;;;33.00;20.85;;;9.50;99.90;;;;;;4959640;28;20065;-48
2021/11/13 00:17:14;;;;;;;34.78;19.77;;;9.50;99.90;;;;;;4959676;28;20034;-49
2021/11/13 00:19:40;;;;;;;29.92;19.75;;;9.60;99.90;;;;;;4998217;28;20123;-49
2021/11/13 00:22:07;;;;;;;30.00;18.58;;;9.70;99.90;;;;;;5045746;28;20485;-48
2021/11/13 00:24:33;;;;;;;31.75;17.83;;;9.80;99.90;;;;;;5053365;28;20487;-48
2021/11/13 00:26:59;;;;;;;30.35;18.35;;;9.70;99.90;;;;;;5053570;28;20029;-48
2021/11/13 00:29:25;;;;;;;27.30;18.33;;;9.80;99.90;;;;;;5034561;28;20453;-48
2021/11/13 00:31:53;;;;;;;29.98;17.70;;;9.80;99.90;;;;;;5053213;28;20060;-48
2021/11/13 00:34:19;;;;;;;26.95;18.73;;;9.80;99.90;;;;;;5053155;28;20040;-47
2021/11/13 00:36:45;;;;;;;31.90;19.60;;;9.70;99.90;;;;;;5053365;28;20028;-48
2021/11/13 00:39:11;;;;;;;26.33;18.00;;;9.60;99.90;;;;;;5017929;28;20461;-48
2021/11/13 00:41:37;;;;;;;31.40;19.17;;;9.70;99.90;;;;;;5053538;28;20107;-48
2021/11/13 00:44:04;;;;;;;29.85;19.50;;;9.70;99.90;;;;;;5053021;28;20049;-48
2021/11/13 00:46:30;;;;;;;31.98;22.38;;;9.60;99.90;;;;;;5018031;28;20059;-48
2021/11/13 00:48:57;;;;;;;38.17;23.58;;;9.50;99.90;;;;;;5053015;28;20029;-49
2021/11/13 00:51:23;;;;;;;31.73;21.42;;;9.50;99.90;;;;;;5001913;28;20120;-48
2021/11/13 00:53:49;;;;;;;35.97;22.98;;;9.60;99.90;;;;;;5057110;28;20033;-48
2021/11/13 00:56:15;;;;;;;36.47;22.55;;;9.60;99.90;;;;;;5057520;28;20108;-48
2021/11/13 00:58:40;;;;;;;41.53;27.13;;;9.70;99.90;;;;;;5022137;28;20032;-48
2021/11/13 01:01:07;;;;;;;44.65;26.60;;;9.60;99.90;;;;;;5051424;28;20029;-49
2021/11/13 01:03:33;;;;;;;46.97;29.23;;;9.60;99.90;;;;;;5037224;28;20022;-47
2021/11/13 01:05:59;;;;;;;51.05;30.23;;;9.60;99.90;;;;;;5036901;28;20025;-47
2021/11/13 01:08:25;;;;;;;51.92;29.23;;;9.60;99.90;;;;;;5037237;28;20052;-47
2021/11/13 01:10:52;;;;;;;38.83;24.52;;;9.60;99.90;;;;;;5037244;28;20022;-47
2021/11/13 01:13:19;;;;;;;45.10;27.52;;;9.60;99.90;;;;;;5036904;28;20064;-47
2021/11/13 01:15:45;;;;;;;46.40;29.95;;;9.70;99.90;;;;;;5037231;28;20036;-47
2021/11/13 01:18:11;;;;;;;52.17;31.75;;;9.50;99.90;;;;;;5036848;28;20033;-47
2021/11/13 01:20:38;;;;;;;49.45;31.40;;;9.50;99.90;;;;;;4996243;28;20049;-47
2021/11/13 01:23:04;;;;;;;52.55;30.17;;;9.30;99.90;;;;;;5036799;28;20107;-47
2021/11/13 01:25:30;;;;;;;47.78;29.08;;;9.50;99.90;;;;;;5018142;28;20492;-48
2021/11/13 01:27:57;;;;;;;48.03;30.13;;;9.50;99.90;;;;;;5036799;28;20631;-49
2021/11/13 01:30:24;;;;;;;48.92;28.20;;;9.40;99.90;;;;;;5018165;28;20037;-47
2021/11/13 01:32:50;;;;;;;46.22;26.85;;;9.40;99.90;;;;;;5036426;28;20583;-48
2021/11/13 01:35:18;;;;;;;45.72;27.92;;;9.40;99.90;;;;;;5018062;28;20037;-47
2021/11/13 01:37:45;;;;;;;45.67;29.73;;;9.30;99.90;;;;;;5036553;28;20032;-47
2021/11/13 01:40:17;;;;;;;46.70;28.50;;;9.60;99.90;;;;;;5036616;28;20041;-47
2021/11/13 01:42:43;;;;;;;42.47;27.23;;;9.50;99.90;;;;;;5018076;28;20033;-47
2021/11/13 01:45:10;;;;;;;39.10;25.08;;;9.50;99.90;;;;;;5017921;28;20030;-48
2021/11/13 01:47:38;;;;;;;41.22;24.98;;;9.40;99.90;;;;;;4985140;28;20033;-48
2021/11/13 01:50:18;;;;;;;41.78;26.33;;;9.50;99.90;;;;;;5017737;28;20124;-48
2021/11/13 01:52:45;;;;;;;48.30;29.60;;;9.70;99.90;;;;;;5017750;28;20038;-46
2021/11/13 01:55:11;;;;;;;53.50;32.85;;;9.50;99.90;;;;;;5036108;28;20038;-46
2021/11/13 01:57:44;;;;;;;47.08;28.85;;;9.10;99.90;;;;;;5018025;28;20048;-46
2021/11/13 02:00:26;;;;;;;50.15;28.88;;;8.50;99.90;;;;;;5036025;28;20033;-46
2021/11/13 02:02:52;;;;;;;53.15;30.88;;;8.40;99.90;;;;;;5036248;28;20061;-46
2021/11/13 02:05:17;;;;;;;53.22;31.65;;;8.20;99.90;;;;;;5029616;28;20036;-47
2021/11/13 02:07:43;;;;;;;56.45;32.63;;;8.20;99.90;;;;;;5014185;28;20034;-48
2021/11/13 02:10:11;;;;;;;55.85;33.50;;;8.00;99.90;;;;;;5014127;28;20069;-48
2021/11/13 02:12:37;;;;;;;62.47;37.38;;;8.00;99.90;;;;;;5016278;28;20465;-48
2021/11/13 02:15:05;;;;;;;64.53;36.55;;;8.20;99.90;;;;;;5016677;28;20339;-48
2021/11/13 02:17:31;;;;;;;58.55;34.85;;;8.10;99.90;;;;;;5009634;28;20487;-48
2021/11/13 02:20:13;;;;;;;54.58;32.83;;;8.20;99.90;;;;;;5025323;28;20054;-47
2021/11/13 02:22:39;;;;;;;58.95;32.15;;;8.30;99.90;;;;;;5015898;28;20037;-47
2021/11/13 02:25:05;;;;;;;55.63;32.00;;;8.10;99.90;;;;;;5015670;28;20103;-47
2021/11/13 02:27:32;;;;;;;58.00;31.65;;;7.80;99.90;;;;;;4964810;28;20034;-47
2021/11/13 02:29:58;;;;;;;54.33;29.70;;;7.70;99.90;;;;;;4965076;28;20501;-49
2021/11/13 02:32:24;;;;;;;58.72;33.33;;;7.60;99.90;;;;;;5015867;28;20030;-47
2021/11/13 02:34:49;;;;;;;66.93;37.85;;;7.60;99.90;;;;;;5015770;28;20033;-47
2021/11/13 02:37:16;;;;;;;62.00;33.05;;;7.60;99.90;;;;;;4997535;28;20500;-47
2021/11/13 02:39:43;;;;;;;65.93;35.10;;;7.80;99.90;;;;;;5015830;28;20026;-46
2021/11/13 02:42:09;;;;;;;58.97;33.47;;;8.00;99.90;;;;;;5015895;28;20037;-47
2021/11/13 02:44:36;;;;;;;54.90;31.95;;;8.10;99.90;;;;;;5015813;28;20022;-47
2021/11/13 02:47:02;;;;;;;56.42;33.15;;;7.90;99.90;;;;;;4932970;28;20378;-47
2021/11/13 02:49:30;;;;;;;62.35;34.60;;;8.00;99.90;;;;;;4998022;28;20377;-47
2021/11/13 02:51:56;;;;;;;67.72;36.45;;;8.30;99.90;;;;;;5015674;28;20034;-47
2021/11/13 02:54:21;;;;;;;64.03;36.63;;;8.30;99.90;;;;;;5015387;28;20034;-47
2021/11/13 02:56:47;;;;;;;65.75;37.42;;;8.10;99.90;;;;;;5015766;28;20025;-47
2021/11/13 02:59:13;;;;;;;70.05;37.90;;;8.00;99.90;;;;;;5014910;28;20029;-47
2021/11/13 03:01:39;;;;;;;69.95;35.78;;;7.90;99.90;;;;;;4948027;28;20034;-47
2021/11/13 03:04:05;;;;;;;73.90;38.92;;;7.80;99.90;;;;;;5015371;28;20346;-46
2021/11/13 03:06:31;;;;;;;73.78;38.25;;;7.90;99.90;;;;;;5031080;28;20429;-47
2021/11/13 03:08:57;;;;;;;66.80;36.45;;;7.80;99.90;;;;;;4984016;28;20038;-47
2021/11/13 03:11:23;;;;;;;70.35;38.03;;;7.60;99.90;;;;;;5035017;28;20072;-47
2021/11/13 03:13:51;;;;;;;74.30;38.88;;;7.50;99.90;;;;;;5035076;28;20029;-47
2021/11/13 03:16:18;;;;;;;73.45;41.15;;;7.50;99.90;;;;;;5031713;28;20030;-47
2021/11/13 03:18:44;;;;;;;73.78;41.28;;;7.70;99.90;;;;;;5034971;28;20083;-47
2021/11/13 03:21:10;;;;;;;73.72;40.83;;;8.00;99.90;;;;;;5022905;28;20080;-47
2021/11/13 03:23:40;;;;;;;75.95;40.55;;;8.30;99.90;;;;;;5015799;28;20108;-46
2021/11/13 03:26:13;;;;;;;64.32;38.17;;;8.40;99.90;;;;;;5011382;28;20069;-46
2021/11/13 03:28:43;;;;;;;54.75;30.55;;;8.00;99.90;;;;;;5015932;28;20058;-47
2021/11/13 03:31:09;;;;;;;66.72;35.35;;;7.50;99.90;;;;;;5016560;28;20029;-46
2021/11/13 03:33:39;;;;;;;65.35;37.15;;;7.50;99.90;;;;;;5027400;28;20041;-47
2021/11/13 03:36:05;;;;;;;72.28;39.13;;;7.40;99.90;;;;;;5025309;28;20030;-47
2021/11/13 03:38:31;;;;;;;60.45;33.55;;;7.40;99.90;;;;;;5022379;28;20160;-47
2021/11/13 03:40:58;;;;;;;73.18;40.17;;;7.30;99.90;;;;;;4993875;28;20068;-47
2021/11/13 03:43:24;;;;;;;76.60;40.40;;;7.30;99.90;;;;;;5033804;28;20018;-47
2021/11/13 03:45:50;;;;;;;74.63;40.65;;;7.50;99.90;;;;;;5023894;28;20037;-47
2021/11/13 03:48:17;;;;;;;83.05;42.92;;;7.60;99.90;;;;;;4993022;28;20080;-47
2021/11/13 03:50:43;;;;;;;75.35;41.30;;;7.70;99.90;;;;;;5025304;28;20059;-47
2021/11/13 03:53:09;;;;;;;74.60;39.85;;;8.00;99.90;;;;;;4998937;28;20041;-52
2021/11/13 03:55:35;;;;;;;74.70;39.92;;;7.90;99.90;;;;;;4982827;28;20064;-48
2021/11/13 03:58:02;;;;;;;72.53;39.90;;;7.90;99.90;;;;;;5021794;28;20030;-43
2021/11/13 04:00:28;;;;;;;83.80;41.85;;;7.90;99.90;;;;;;5026125;28;20354;-51
2021/11/13 04:02:54;;;;;;;78.80;41.40;;;7.90;99.90;;;;;;5010677;28;20175;-51
2021/11/13 04:05:21;;;;;;;77.68;45.33;;;7.90;99.90;;;;;;5033899;28;20449;-51
2021/11/13 04:07:49;;;;;;;82.78;43.95;;;7.90;99.90;;;;;;5018264;28;20032;-51
2021/11/13 04:10:15;;;;;;;85.65;45.45;;;7.90;99.90;;;;;;5014420;28;20034;-51
2021/11/13 04:12:51;;;;;;;81.30;42.35;;;8.20;99.90;;;;;;4956829;28;20137;-52
2021/11/13 04:15:18;;;;;;;80.18;41.72;;;8.20;99.90;;;;;;4961178;28;20099;-52
2021/11/13 04:17:46;;;;;;;78.03;43.63;;;7.90;99.90;;;;;;4972585;28;20039;-52
2021/11/13 04:20:12;;;;;;;88.65;46.95;;;7.90;99.90;;;;;;4983374;28;20459;-51
2021/11/13 04:22:39;;;;;;;83.22;45.55;;;8.20;99.90;;;;;;4959768;28;20114;-52
2021/11/13 04:25:06;;;;;;;79.75;40.83;;;7.90;99.90;;;;;;4992233;28;20038;-51
2021/11/13 04:27:32;;;;;;;81.47;42.95;;;7.90;99.90;;;;;;4991600;28;20066;-51
2021/11/13 04:29:57;;;;;;;85.57;44.88;;;7.90;99.90;;;;;;4991950;28;20056;-51
2021/11/13 04:32:28;;;;;;;80.60;44.80;;;8.00;99.90;;;;;;4992155;28;20075;-51
2021/11/13 04:37:25;;;;;;;79.43;43.83;;;8.00;99.90;;;;;;4992004;28;20482;-51
2021/11/13 04:39:51;;;;;;;83.82;45.78;;;7.90;99.90;;;;;;4990951;28;20121;-51
2021/11/13 04:42:17;;;;;;;84.28;41.85;;;8.00;99.90;;;;;;4924471;28;20548;-51
2021/11/13 04:44:43;;;;;;;84.30;44.13;;;8.10;99.90;;;;;;5027538;28;20038;-51
2021/11/13 04:47:10;;;;;;;80.30;43.60;;;8.10;99.90;;;;;;5050915;28;20102;-51
2021/11/13 04:49:35;;;;;;;84.38;45.50;;;8.00;99.90;;;;;;5001406;28;20500;-51
2021/11/13 04:52:03;;;;;;;82.70;45.15;;;8.20;99.90;;;;;;5050925;28;20055;-51
2021/11/13 04:54:29;;;;;;;80.18;42.13;;;8.10;99.90;;;;;;5034702;28;20045;-51
2021/11/13 04:56:55;;;;;;;87.47;45.50;;;7.80;99.90;;;;;;5051040;28;20072;-51
2021/11/13 04:59:21;;;;;;;83.57;45.55;;;7.80;99.90;;;;;;5050851;28;20206;-52
2021/11/13 05:01:47;;;;;;;84.78;44.30;;;7.70;99.90;;;;;;5050835;28;20057;-51
2021/11/13 05:04:13;;;;;;;82.75;41.45;;;7.70;99.90;;;;;;5050729;28;20056;-51
2021/11/13 05:06:39;;;;;;;85.65;44.60;;;7.70;99.90;;;;;;5050958;28;20060;-51
2021/11/13 05:09:05;;;;;;;82.68;44.33;;;7.50;99.90;;;;;;5001083;28;20484;-51
2021/11/13 05:11:31;;;;;;;92.70;48.60;;;7.60;99.90;;;;;;5050923;28;20396;-51
2021/11/13 05:13:56;;;;;;;88.15;45.75;;;7.70;99.90;;;;;;5050794;28;20528;-51
2021/11/13 05:16:22;;;;;;;93.22;48.42;;;7.90;99.90;;;;;;5050813;28;20025;-51
2021/11/13 05:18:48;;;;;;;86.15;45.88;;;7.60;99.90;;;;;;5050946;28;20029;-51
2021/11/13 05:21:14;;;;;;;93.57;44.83;;;7.80;99.90;;;;;;5050420;28;20179;-51
2021/11/13 05:23:40;;;;;;;97.50;51.72;;;7.70;99.90;;;;;;5050060;28;20025;-51
2021/11/13 05:26:06;;;;;;;92.57;48.90;;;7.70;99.90;;;;;;5033235;28;20026;-51
2021/11/13 05:28:33;;;;;;;82.95;44.67;;;7.90;99.90;;;;;;5033080;28;20497;-51
2021/11/13 05:30:59;;;;;;;85.25;44.47;;;8.00;99.90;;;;;;5047443;28;20060;-51
2021/11/13 05:33:26;;;;;;;78.32;38.42;;;8.00;99.90;;;;;;5033270;28;20037;-51
2021/11/13 05:35:52;;;;;;;94.70;47.38;;;7.90;99.90;;;;;;5032893;28;20068;-51
2021/11/13 05:38:19;;;;;;;81.57;43.40;;;8.00;99.90;;;;;;5015960;28;20069;-51
2021/11/13 05:40:45;;;;;;;84.80;42.33;;;7.80;99.90;;;;;;5036693;28;20021;-51
2021/11/13 05:43:11;;;;;;;83.63;44.30;;;7.60;99.90;;;;;;5031811;28;20033;-51
2021/11/13 05:45:38;;;;;;;91.55;45.50;;;7.70;99.90;;;;;;5033955;28;20030;-51
2021/11/13 05:48:04;;;;;;;85.82;44.47;;;7.80;99.90;;;;;;4999495;28;20034;-52
2021/11/13 05:50:29;;;;;;;74.85;34.60;;;7.70;99.90;;;;;;5036596;28;20369;-51
2021/11/13 05:52:56;;;;;;;77.03;41.30;;;7.50;99.90;;;;;;5036891;28;20033;-51
2021/11/13 05:55:24;;;;;;;94.07;45.90;;;7.50;99.90;;;;;;5036413;28;20026;-51
2021/11/13 05:57:51;;;;;;;88.63;42.95;;;7.60;99.90;;;;;;5035026;28;20036;-51
2021/11/13 06:00:19;;;;;;;84.78;42.38;;;7.60;99.90;;;;;;5036383;28;20516;-52
2021/11/13 06:02:45;;;;;;;84.60;44.85;;;7.50;99.90;;;;;;5017730;28;20056;-51
2021/11/13 06:05:12;;;;;;;82.60;41.92;;;7.50;99.90;;;;;;5036132;28;20032;-51
2021/11/13 06:07:38;;;;;;;90.60;43.78;;;7.60;99.90;;;;;;5036505;28;20029;-51
2021/11/13 06:10:06;;;;;;;85.45;43.53;;;7.70;99.90;;;;;;5036465;28;20048;-51
2021/11/13 06:12:32;;;;;;;94.70;47.60;;;7.70;99.90;;;;;;5000999;28;20079;-51
2021/11/13 06:14:57;;;;;;;85.65;44.80;;;7.70;99.90;;;;;;5036140;28;20092;-51
2021/11/13 06:17:23;;;;;;;88.30;46.75;;;7.80;99.90;;;;;;5036169;28;20495;-51
2021/11/13 06:19:49;;;;;;;97.03;46.33;;;7.90;99.90;;;;;;4956783;28;20060;-51
2021/11/13 06:22:15;;;;;;;90.05;46.08;;;7.80;99.90;;;;;;5035760;28;20022;-51
2021/11/13 06:24:41;;;;;;;93.70;51.80;;;7.80;99.90;;;;;;5016895;28;20116;-51
2021/11/13 06:27:08;;;;;;;86.00;44.95;;;8.00;99.90;;;;;;5033872;28;20033;-51
2021/11/13 06:29:33;;;;;;;93.03;45.60;;;7.70;99.90;;;;;;5035650;28;20061;-50
2021/11/13 06:31:59;;;;;;;90.45;45.67;;;7.80;99.90;;;;;;5035689;28;20079;-51
2021/11/13 06:34:25;;;;;;;100.78;47.78;;;7.70;99.90;;;;;;5035503;28;20077;-51
2021/11/13 06:36:51;;;;;;;100.65;47.78;;;7.90;99.90;;;;;;5035855;28;20029;-51
2021/11/13 06:39:18;;;;;;;93.90;47.75;;;7.90;99.90;;;;;;4968295;28;20043;-51
2021/11/13 06:41:43;;;;;;;96.57;50.53;;;8.10;99.90;;;;;;5017261;28;20045;-51
2021/11/13 06:44:09;;;;;;;101.30;48.70;;;8.10;99.90;;;;;;5035461;28;20079;-51
2021/11/13 06:46:35;;;;;;;95.82;47.58;;;8.10;99.90;;;;;;5035639;28;20069;-51
2021/11/13 06:49:01;;;;;;;96.88;48.88;;;7.90;99.90;;;;;;5034964;28;20087;-51
2021/11/13 06:51:26;;;;;;;95.40;48.35;;;8.10;99.90;;;;;;5016511;28;20041;-52
2021/11/13 06:53:52;;;;;;;93.15;47.63;;;7.90;99.90;;;;;;4984860;28;20050;-51
2021/11/13 06:56:18;;;;;;;101.30;51.08;;;7.80;99.90;;;;;;5033538;28;20033;-51
2021/11/13 06:58:44;;;;;;;102.95;54.40;;;7.80;99.90;;;;;;5009729;28;20382;-51
2021/11/13 07:01:09;;;;;;;94.78;51.03;;;8.10;99.90;;;;;;5015197;28;20037;-50
2021/11/13 07:03:35;;;;;;;98.43;49.25;;;8.10;99.90;;;;;;5033782;28;20492;-51
2021/11/13 07:06:01;;;;;;;95.47;48.85;;;8.00;99.90;;;;;;5033980;28;20044;-51
2021/11/13 07:08:27;;;;;;;106.65;48.35;;;8.10;99.90;;;;;;5033714;28;20033;-51
2021/11/13 07:10:53;;;;;;;96.90;49.55;;;7.70;99.90;;;;;;5009145;28;20065;-51
2021/11/13 07:13:24;;;;;;;94.25;41.03;;;7.80;99.90;;;;;;4997575;28;20374;-51
2021/11/13 07:15:50;;;;;;;101.60;52.78;;;7.60;99.90;;;;;;5030914;28;20041;-51
2021/11/13 07:18:16;;;;;;;109.35;52.67;;;7.70;99.90;;;;;;5033648;28;20025;-51
2021/11/13 07:20:42;;;;;;;94.70;45.22;;;7.70;99.90;;;;;;5033292;28;20049;-51
2021/11/13 07:23:08;;;;;;;106.93;50.47;;;7.30;99.90;;;;;;5030518;28;20125;-50
2021/11/13 07:25:35;;;;;;;85.55;43.25;;;7.50;99.90;;;;;;4930896;28;20034;-51
2021/11/13 07:28:07;;;;;;;86.60;40.50;;;7.40;99.90;;;;;;5015343;28;20032;-51
2021/11/13 07:30:40;;;;;;;85.03;38.97;;;7.30;99.90;;;;;;5033305;28;20038;-50
2021/11/13 07:33:09;;;;;;;109.80;64.22;;;7.20;99.90;;;;;;4985117;28;20053;-51
2021/11/13 07:35:36;;;;;;;95.38;45.10;;;7.20;99.90;;;;;;5033188;28;20033;-51
2021/11/13 07:38:03;;;;;;;96.38;45.10;;;7.20;99.90;;;;;;5033447;28;20048;-51
2021/11/13 07:40:29;;;;;;;95.10;40.42;;;7.00;99.90;;;;;;5033244;28;20029;-51
2021/11/13 07:42:55;;;;;;;95.70;45.35;;;6.90;99.90;;;;;;5032923;28;20036;-51
2021/11/13 07:45:21;;;;;;;92.82;46.15;;;7.20;99.90;;;;;;5033025;28;20053;-51
2021/11/13 07:47:47;;;;;;;77.60;37.47;;;7.10;99.90;;;;;;4981977;28;20033;-51
2021/11/13 07:50:16;;;;;;;39.85;18.52;;;7.00;99.90;;;;;;5032928;28;20056;-51
2021/11/13 07:52:42;;;;;;;94.68;46.92;;;6.60;99.90;;;;;;5014289;28;20068;-51
2021/11/13 07:55:09;;;;;;;104.68;46.35;;;6.70;99.90;;;;;;5033183;28;20477;-51
2021/11/13 07:57:35;;;;;;;108.22;54.47;;;6.80;99.90;;;;;;5032875;28;20108;-50
2021/11/13 08:00:06;;;;;;;93.93;45.45;;;7.10;99.90;;;;;;5032867;28;20037;-51
2021/11/13 08:02:33;;;;;;;87.55;42.78;;;7.10;99.90;;;;;;5032839;28;20029;-51
2021/11/13 08:04:59;;;;;;;100.13;51.33;;;7.10;99.90;;;;;;5032744;28;20028;-51
2021/11/13 08:07:24;;;;;;;90.30;44.83;;;7.20;99.90;;;;;;5032705;28;20385;-51
2021/11/13 08:09:50;;;;;;;92.10;48.63;;;7.00;99.90;;;;;;5032409;28;20032;-52
2021/11/13 08:12:16;;;;;;;45.75;23.60;;;7.40;99.90;;;;;;5032752;28;20021;-51
2021/11/13 08:14:42;;;;;;;99.45;52.50;;;7.00;99.90;;;;;;5033848;28;20037;-52
2021/11/13 08:17:08;;;;;;;107.35;55.55;;;7.10;99.90;;;;;;5033310;28;20029;-52
2021/11/13 08:19:34;;;;;;;109.97;55.33;;;7.20;99.90;;;;;;4996687;28;20470;-46
2021/11/13 08:22:00;;;;;;;102.95;51.35;;;7.40;99.90;;;;;;5019951;28;20036;-50
2021/11/13 08:24:25;;;;;;;101.75;51.03;;;7.40;99.90;;;;;;5027792;28;20017;-50
2021/11/13 08:26:51;;;;;;;99.40;48.65;;;7.40;99.90;;;;;;4996799;28;20585;-50
2021/11/13 08:29:17;;;;;;;75.82;33.92;;;7.20;99.90;;;;;;4994893;28;20477;-51
2021/11/13 08:31:43;;;;;;;101.82;51.95;;;7.00;99.90;;;;;;4994659;28;20406;-49
2021/11/13 08:34:09;;;;;;;108.32;52.13;;;7.20;99.90;;;;;;5023897;28;20397;-50
2021/11/13 08:36:35;;;;;;;84.45;43.92;;;7.30;99.90;;;;;;5028478;28;20029;-49
2021/11/13 08:39:04;;;;;;;94.50;47.90;;;7.60;99.90;;;;;;4995924;28;20033;-46
2021/11/13 08:41:30;;;;;;;83.78;39.17;;;7.60;99.90;;;;;;4997972;28;20359;-49
2021/11/13 08:43:56;;;;;;;82.68;43.35;;;7.40;99.90;;;;;;5033388;28;20030;-49
2021/11/13 08:46:22;;;;;;;91.05;44.35;;;7.30;99.90;;;;;;5033803;28;20025;-50
2021/11/13 08:48:47;;;;;;;101.53;50.40;;;7.70;99.90;;;;;;5033172;28;20037;-49
2021/11/13 08:51:14;;;;;;;94.88;44.53;;;7.70;99.90;;;;;;4980511;28;20394;-51
2021/11/13 08:53:40;;;;;;;93.30;47.40;;;7.80;99.90;;;;;;4994995;28;20056;-50
2021/11/13 08:56:07;;;;;;;99.82;48.45;;;7.80;99.90;;;;;;5023681;28;20156;-49
2021/11/13 08:58:33;;;;;;;93.80;49.40;;;7.90;99.90;;;;;;4997585;28;20501;-49
2021/11/13 09:01:04;;;;;;;91.28;46.50;;;7.90;99.90;;;;;;5033149;28;20033;-48
2021/11/13 09:03:37;;;;;;;83.18;43.53;;;7.90;99.90;;;;;;5025309;28;20025;-57
2021/11/13 09:06:08;;;;;;;91.70;45.70;;;8.00;99.90;;;;;;5023027;28;20036;-58
2021/11/13 09:08:39;;;;;;;80.47;42.43;;;7.90;99.90;;;;;;4992984;28;20378;-54
2021/11/13 09:11:06;;;;;;;82.65;44.65;;;7.90;99.90;;;;;;4995475;28;20037;-54
2021/11/13 09:13:33;;;;;;;76.72;40.63;;;7.90;99.90;;;;;;4995868;28;20042;-56
2021/11/13 09:16:00;;;;;;;80.30;40.65;;;7.90;99.90;;;;;;5027094;28;20029;-54
2021/11/13 09:18:27;;;;;;;87.75;45.33;;;7.70;99.90;;;;;;5026379;28;20029;-53
2021/11/13 09:20:53;;;;;;;75.38;39.95;;;7.70;99.90;;;;;;5026312;28;20128;-53
2021/11/13 09:23:19;;;;;;;91.47;46.88;;;7.60;99.90;;;;;;5025805;28;20104;-53
2021/11/13 09:25:46;;;;;;;83.50;39.95;;;7.80;99.90;;;;;;5023099;28;20076;-50
2021/11/13 09:28:13;;;;;;;79.47;40.28;;;7.60;99.90;;;;;;5025414;28;20014;-50
2021/11/13 09:30:40;;;;;;;88.22;45.38;;;7.60;99.90;;;;;;5006947;28;20038;-50
2021/11/13 09:33:06;;;;;;;92.97;47.08;;;7.60;99.90;;;;;;5012463;28;20029;-50
2021/11/13 09:35:32;;;;;;;91.43;44.85;;;8.10;99.90;;;;;;5011856;28;20378;-49
2021/11/13 09:37:58;;;;;;;85.45;45.38;;;8.00;99.90;;;;;;5024746;28;20104;-50
2021/11/13 09:40:26;;;;;;;89.35;44.28;;;8.20;99.90;;;;;;5024380;28;20033;-49
2021/11/13 09:42:56;;;;;;;86.15;41.70;;;8.10;99.90;;;;;;5016946;28;20021;-49
2021/11/13 09:45:22;;;;;;;86.10;41.05;;;8.00;99.90;;;;;;5016852;28;20041;-50
2021/11/13 09:47:50;;;;;;;82.38;42.65;;;8.00;99.90;;;;;;4949908;28;20042;-50
2021/11/13 09:50:17;;;;;;;87.13;45.72;;;7.80;99.90;;;;;;5016756;28;20034;-50
2021/11/13 09:52:44;;;;;;;81.57;40.83;;;8.20;99.90;;;;;;4982120;28;20553;-50
2021/11/13 09:55:12;;;;;;;81.03;42.53;;;8.10;99.90;;;;;;4981880;28;20535;-50
2021/11/13 09:57:38;;;;;;;86.85;42.05;;;8.00;99.90;;;;;;4979484;28;20485;-49
2021/11/13 10:00:11;;;;;;;84.60;42.55;;;8.20;99.90;;;;;;5016386;28;20391;-50
2021/11/13 10:02:36;;;;;;;101.60;50.47;;;8.10;99.90;;;;;;4888471;28;20046;-50
2021/11/13 10:05:03;;;;;;;136.48;84.82;;;8.00;99.90;;;;;;5018613;28;20078;-51
2021/11/13 10:07:32;;;;;;;94.82;47.83;;;7.90;99.90;;;;;;5016222;28;20025;-50
2021/11/13 10:09:58;;;;;;;103.53;54.20;;;7.90;99.90;;;;;;5016659;28;20298;-50
2021/11/13 10:12:38;;;;;;;97.55;51.65;;;8.30;99.90;;;;;;4981331;28;20497;-50
2021/11/13 10:15:28;;;;;;;90.15;43.28;;;8.60;99.90;;;;;;4988468;28;20038;-49
2021/11/13 10:18:03;;;;;;;95.03;51.15;;;8.50;99.90;;;;;;5036560;28;20029;-50
2021/11/13 10:20:29;;;;;;;99.30;49.53;;;8.90;99.90;;;;;;5036311;28;20041;-50
2021/11/13 10:22:55;;;;;;;94.38;44.80;;;9.00;99.90;;;;;;5035988;28;20052;-50
2021/11/13 10:25:21;;;;;;;106.53;54.35;;;8.90;99.90;;;;;;4999233;28;20044;-49
2021/11/13 10:28:06;;;;;;;88.07;45.45;;;9.00;99.90;;;;;;5028464;28;20088;-50
2021/11/13 10:30:32;;;;;;;98.38;48.05;;;9.10;99.90;;;;;;5016135;28;20512;-50
2021/11/13 10:32:58;;;;;;;95.03;47.53;;;8.80;99.90;;;;;;4948984;28;20042;-50
2021/11/13 10:35:54;;;;;;;96.47;44.58;;;9.00;99.90;;;;;;4974404;28;20053;-50
2021/11/13 10:38:21;;;;;;;91.47;41.05;;;8.70;99.90;;;;;;4961739;28;20102;-50
2021/11/13 10:40:56;;;;;;;91.75;46.17;;;8.70;99.90;;;;;;4954975;29;20531;-49
2021/11/13 10:43:40;;;;;;;96.55;50.70;;;8.80;99.90;;;;;;4954783;29;20419;-50
2021/11/13 10:46:10;;;;;;;81.65;40.22;;;9.10;99.90;;;;;;4954992;29;20027;-50
2021/11/13 10:48:43;;;;;;;86.25;41.75;;;9.10;99.90;;;;;;4965435;28;20414;-50
2021/11/13 10:51:12;;;;;;;83.57;41.33;;;9.20;99.90;;;;;;4974188;28;20470;-49
2021/11/13 10:53:40;;;;;;;88.82;44.78;;;9.00;99.90;;;;;;4973995;28;20125;-50
2021/11/13 10:56:13;;;;;;;75.85;42.03;;;9.40;99.90;;;;;;4974215;28;20066;-49
2021/11/13 10:59:00;;;;;;;104.68;54.78;;;9.50;99.90;;;;;;4973153;28;20035;-49
2021/11/13 11:01:48;;;;;;;106.10;56.30;;;9.80;99.90;;;;;;4965222;28;20380;-50
2021/11/13 11:04:22;;;;;;;84.10;42.35;;;9.50;99.90;;;;;;4934339;29;20074;-50
2021/11/13 11:06:52;;;;;;;83.22;38.95;;;9.70;99.90;;;;;;4934307;29;20046;-49
2021/11/13 11:09:25;;;;;;;71.70;37.05;;;9.30;99.90;;;;;;4969755;28;20447;-50
2021/11/13 11:11:57;;;;;;;91.85;43.33;;;9.20;99.90;;;;;;4957893;28;20059;-50
2021/11/13 11:14:26;;;;;;;114.95;52.90;;;9.40;99.90;;;;;;4969256;28;20045;-50
2021/11/13 11:17:06;;;;;;;94.22;46.28;;;9.50;99.90;;;;;;4995252;28;20473;-50
2021/11/13 11:19:34;;;;;;;79.43;41.10;;;9.60;99.90;;;;;;5024238;28;20045;-49
2021/11/13 11:22:04;;;;;;;80.22;42.00;;;9.90;99.90;;;;;;5051501;28;20075;-50
2021/11/13 11:24:39;;;;;;;78.07;43.05;;;10.40;99.90;;;;;;4983754;28;20353;-49
2021/11/13 11:27:10;;;;;;;79.53;38.10;;;10.90;99.90;;;;;;5033420;28;20533;-49
2021/11/13 11:29:49;;;;;;;77.18;44.70;;;10.50;99.90;;;;;;5007339;28;20064;-50
2021/11/13 11:32:20;;;;;;;74.13;39.38;;;11.70;99.90;;;;;;5035095;28;20053;-50
2021/11/13 11:34:47;;;;;;;75.80;40.23;;;12.10;99.90;;;;;;5052092;28;20048;-49
2021/11/13 11:37:40;;;;;;;81.10;43.83;;;12.40;99.90;;;;;;5039461;28;20036;-52
2021/11/13 11:40:11;;;;;;;73.68;40.92;;;13.00;99.90;;;;;;5049232;28;20568;-50
2021/11/13 11:42:38;;;;;;;77.87;44.57;;;13.20;99.90;;;;;;5038030;28;20049;-50
2021/11/13 11:45:07;;;;;;;78.63;43.30;;;13.70;99.90;;;;;;4982062;28;20038;-50
2021/11/13 11:47:34;;;;;;;69.68;39.67;;;14.20;99.90;;;;;;4992982;28;20124;-54
2021/11/13 11:50:08;;;;;;;65.93;39.88;;;14.40;99.90;;;;;;4981141;28;20554;-47
2021/11/13 11:52:35;;;;;;;70.03;41.88;;;14.50;99.90;;;;;;5037562;28;20068;-49
2021/11/13 11:55:05;;;;;;;68.43;39.22;;;14.40;99.90;;;;;;5042401;28;20552;-48
2021/11/13 11:57:35;;;;;;;64.45;39.65;;;14.70;99.90;;;;;;4997469;28;20128;-50
2021/11/13 12:00:14;;;;;;;67.07;38.47;;;14.80;99.90;;;;;;5032782;28;20034;-50
2021/11/13 12:02:41;;;;;;;60.78;37.97;;;15.00;99.90;;;;;;5000860;28;20690;-50
2021/11/13 12:05:18;;;;;;;67.50;39.67;;;14.70;99.90;;;;;;5050206;28;20424;-52
2021/11/13 12:07:46;;;;;;;60.97;37.20;;;14.70;99.90;;;;;;5000796;28;20091;-51
2021/11/13 12:10:15;;;;;;;67.05;40.03;;;15.20;99.90;;;;;;4979901;28;20043;-51
2021/11/13 12:12:59;;;;;;;95.60;51.85;;;15.40;99.90;;;;;;4954647;28;20399;-52
2021/11/13 12:15:27;;;;;;;65.97;39.28;;;15.60;99.90;;;;;;4930266;28;20038;-51
2021/11/13 12:17:55;;;;;;;68.72;39.80;;;;;;;;;;4987442;28;20069;-48
2021/11/13 12:20:29;;;;;;;70.13;41.55;;;15.80;99.90;;;;;;4978076;28;20078;-50
2021/11/13 12:23:02;;;;;;;62.72;36.10;;;16.20;99.90;;;;;;4988307;28;20114;-49
2021/11/13 12:25:31;;;;;;;62.25;39.20;;;16.40;99.90;;;;;;4990464;28;20058;-49
2021/11/13 12:28:14;;;;;;;60.70;37.67;;;16.50;99.90;;;;;;4990465;28;20053;-49
2021/11/13 12:31:05;;;;;;;64.95;39.80;;;16.50;99.90;;;;;;4954513;28;20495;-50
2021/11/13 12:33:32;;;;;;;71.32;40.67;;;16.80;99.90;;;;;;4970929;28;20043;-50
2021/11/13 12:36:02;;;;;;;64.55;39.67;;;16.20;99.90;;;;;;4970848;28;20042;-49
2021/11/13 12:38:31;;;;;;;69.25;41.00;;;16.40;99.90;;;;;;4971097;28;20038;-51
2021/11/13 12:41:17;;;;;;;63.45;40.03;;;16.50;99.90;;;;;;4978294;28;20038;-50